createdAt,value
2022-11-27T00:01:00.000Z,2.6
2022-11-27T00:02:16.000Z,2.4
2022-11-27T00:03:32.000Z,2.6
2022-11-27T00:04:48.000Z,2.7
2022-11-27T00:06:05.000Z,2.8
2022-11-27T00:07:21.000Z,2.4
2022-11-27T00:08:37.000Z,2.4
2022-11-27T00:09:53.000Z,2.6
2022-11-27T00:11:10.000Z,2.7
2022-11-27T00:12:26.000Z,2.6
2022-11-27T00:13:42.000Z,2.5
2022-11-27T00:14:58.000Z,2.5
2022-11-27T00:16:14.000Z,2.9
2022-11-27T00:17:30.000Z,2.5
2022-11-27T00:18:46.000Z,2.5
2022-11-27T00:20:02.000Z,2.5
2022-11-27T00:21:18.000Z,2.5
2022-11-27T00:22:34.000Z,2.8
2022-11-27T00:23:50.000Z,2.5
2022-11-27T00:25:06.000Z,2.5
2022-11-27T00:26:22.000Z,2.7
2022-11-27T00:27:39.000Z,2.6
2022-11-27T00:28:55.000Z,2.4
2022-11-27T00:30:11.000Z,2.4
2022-11-27T00:31:27.000Z,2.6
2022-11-27T00:32:44.000Z,2.2
2022-11-27T00:34:00.000Z,2.4
2022-11-27T00:35:16.000Z,2.5
2022-11-27T00:36:32.000Z,2.5
2022-11-27T00:37:48.000Z,2.1
2022-11-27T00:39:04.000Z,2.1
2022-11-27T00:40:20.000Z,2.5
2022-11-27T00:41:36.000Z,2.7
2022-11-27T00:42:53.000Z,2.5
2022-11-27T00:44:09.000Z,2.4
2022-11-27T00:45:25.000Z,2.3
2022-11-27T00:46:41.000Z,2.3
2022-11-27T00:47:57.000Z,2.4
2022-11-27T00:49:14.000Z,2.7
2022-11-27T00:50:30.000Z,2.2
2022-11-27T00:51:46.000Z,2.3
2022-11-27T00:53:02.000Z,2.6
2022-11-27T00:54:18.000Z,2.5
2022-11-27T00:55:34.000Z,2.6
2022-11-27T00:56:50.000Z,2.6
2022-11-27T00:58:06.000Z,2.5
2022-11-27T00:59:23.000Z,2.6
2022-11-27T01:00:39.000Z,2.7
2022-11-27T01:01:55.000Z,2.7
2022-11-27T01:03:11.000Z,2.9
2022-11-27T01:04:28.000Z,2.7
2022-11-27T01:05:44.000Z,3.1
2022-11-27T01:07:00.000Z,2.9
2022-11-27T01:08:16.000Z,2.9
2022-11-27T01:09:32.000Z,2.6
2022-11-27T01:10:48.000Z,3
2022-11-27T01:12:04.000Z,2.9
2022-11-27T01:13:20.000Z,3.2
2022-11-27T01:14:36.000Z,2.6
2022-11-27T01:15:53.000Z,3.2
2022-11-27T01:17:09.000Z,3.1
2022-11-27T01:18:25.000Z,3
2022-11-27T01:19:41.000Z,3.2
2022-11-27T01:20:58.000Z,2.9
2022-11-27T01:22:14.000Z,3.1
2022-11-27T01:23:30.000Z,3
2022-11-27T01:24:46.000Z,3
2022-11-27T01:26:03.000Z,3.2
2022-11-27T01:27:18.000Z,3.1
2022-11-27T01:28:34.000Z,2.9
2022-11-27T01:29:50.000Z,3.3
2022-11-27T01:31:06.000Z,3.1
2022-11-27T01:32:23.000Z,3.3
2022-11-27T01:33:39.000Z,2.9
2022-11-27T01:34:55.000Z,3.2
2022-11-27T01:36:11.000Z,3.2
2022-11-27T01:37:28.000Z,3.3
2022-11-27T01:38:44.000Z,3.2
2022-11-27T01:40:00.000Z,3.3
2022-11-27T01:41:16.000Z,3.1
2022-11-27T01:42:33.000Z,3.2
2022-11-27T01:43:48.000Z,3.2
2022-11-27T01:45:04.000Z,3
2022-11-27T01:46:20.000Z,3.1
2022-11-27T01:47:37.000Z,3.2
2022-11-27T01:50:09.000Z,3.9
2022-11-27T01:52:41.000Z,3.5
2022-11-27T01:53:58.000Z,3.5
2022-11-27T01:55:14.000Z,3.4
2022-11-27T01:56:30.000Z,3.4
2022-11-27T01:57:46.000Z,3.6
2022-11-27T01:59:03.000Z,3.5
2022-11-27T02:00:18.000Z,3.1
2022-11-27T02:01:34.000Z,3.3
2022-11-27T02:02:50.000Z,3.7
2022-11-27T02:04:07.000Z,3.5
2022-11-27T02:05:23.000Z,3.3
2022-11-27T02:06:39.000Z,3.4
2022-11-27T02:07:55.000Z,3.2
2022-11-27T02:09:12.000Z,3.2
2022-11-27T02:10:28.000Z,3.4
2022-11-27T02:11:44.000Z,3
2022-11-27T02:13:00.000Z,2.8
2022-11-27T02:14:16.000Z,3.5
2022-11-27T02:15:33.000Z,2.8
2022-11-27T02:16:48.000Z,3.1
2022-11-27T02:18:04.000Z,3.1
2022-11-27T02:19:20.000Z,2.9
2022-11-27T02:20:37.000Z,2.7
2022-11-27T02:21:53.000Z,3.3
2022-11-27T02:23:09.000Z,2.6
2022-11-27T02:24:25.000Z,2.8
2022-11-27T02:25:42.000Z,2.7
2022-11-27T02:26:58.000Z,2.7
2022-11-27T02:28:14.000Z,2.7
2022-11-27T02:29:30.000Z,3
2022-11-27T02:30:47.000Z,3
2022-11-27T02:32:03.000Z,2.8
2022-11-27T02:33:18.000Z,2.7
2022-11-27T02:34:34.000Z,3
2022-11-27T02:35:50.000Z,3
2022-11-27T02:37:07.000Z,3.5
2022-11-27T02:38:23.000Z,3
2022-11-27T02:39:39.000Z,3.3
2022-11-27T02:40:55.000Z,3.2
2022-11-27T02:42:12.000Z,3.3
2022-11-27T02:43:28.000Z,2.8
2022-11-27T02:44:44.000Z,2.7
2022-11-27T02:46:00.000Z,3
2022-11-27T02:47:17.000Z,2.5
2022-11-27T02:48:33.000Z,2.6
2022-11-27T02:49:48.000Z,2.8
2022-11-27T02:51:04.000Z,2.7
2022-11-27T02:52:21.000Z,2.9
2022-11-27T02:53:37.000Z,2.9
2022-11-27T02:54:53.000Z,3.4
2022-11-27T02:56:09.000Z,3
2022-11-27T02:57:25.000Z,3.1
2022-11-27T02:58:42.000Z,2.9
2022-11-27T02:59:58.000Z,2.8
2022-11-27T03:01:14.000Z,2.7
2022-11-27T03:02:30.000Z,2.6
2022-11-27T03:03:47.000Z,2.5
2022-11-27T03:05:03.000Z,2.6
2022-11-27T03:06:18.000Z,2.7
2022-11-27T03:07:34.000Z,2.4
2022-11-27T03:08:51.000Z,2.7
2022-11-27T03:10:07.000Z,2.6
2022-11-27T03:11:23.000Z,2.7
2022-11-27T03:12:39.000Z,2.6
2022-11-27T03:13:56.000Z,3.1
2022-11-27T03:15:12.000Z,2.8
2022-11-27T03:16:28.000Z,3.1
2022-11-27T03:17:44.000Z,2.9
2022-11-27T03:19:00.000Z,2.9
2022-11-27T03:21:33.000Z,2.8
2022-11-27T03:22:48.000Z,3
2022-11-27T03:24:04.000Z,2.8
2022-11-27T03:25:21.000Z,2.8
2022-11-27T03:26:37.000Z,2.8
2022-11-27T03:27:53.000Z,3
2022-11-27T03:29:09.000Z,3
2022-11-27T03:30:26.000Z,3.1
2022-11-27T03:31:42.000Z,2.8
2022-11-27T03:32:58.000Z,3.2
2022-11-27T03:34:14.000Z,3.3
2022-11-27T03:35:31.000Z,3
2022-11-27T03:36:47.000Z,3.2
2022-11-27T03:38:03.000Z,3.2
2022-11-27T03:39:19.000Z,3.1
2022-11-27T03:40:35.000Z,3.1
2022-11-27T03:41:51.000Z,3
2022-11-27T03:43:07.000Z,2.8
2022-11-27T03:44:23.000Z,3
2022-11-27T03:45:39.000Z,3
2022-11-27T03:46:56.000Z,3.1
2022-11-27T03:48:12.000Z,3
2022-11-27T03:49:28.000Z,3
2022-11-27T03:50:44.000Z,2.8
2022-11-27T03:52:01.000Z,2.9
2022-11-27T03:53:16.000Z,3.5
2022-11-27T03:54:31.000Z,2.9
2022-11-27T03:55:46.000Z,2.8
2022-11-27T03:57:02.000Z,2.7
2022-11-27T03:58:18.000Z,2.6
2022-11-27T03:59:34.000Z,2.7
2022-11-27T04:00:50.000Z,2.7
2022-11-27T04:02:07.000Z,2.6
2022-11-27T04:03:23.000Z,3
2022-11-27T04:04:39.000Z,2.4
2022-11-27T04:05:55.000Z,2.8
2022-11-27T04:07:12.000Z,3
2022-11-27T04:08:28.000Z,3.1
2022-11-27T04:09:44.000Z,2.8
2022-11-27T04:11:00.000Z,3
2022-11-27T04:12:16.000Z,3.5
2022-11-27T04:13:33.000Z,2.8
2022-11-27T04:14:48.000Z,3.4
2022-11-27T04:16:04.000Z,3.4
2022-11-27T04:17:20.000Z,2.8
2022-11-27T04:18:37.000Z,3.1
2022-11-27T04:19:53.000Z,3.4
2022-11-27T04:21:09.000Z,3.3
2022-11-27T04:22:25.000Z,3.1
2022-11-27T04:23:42.000Z,3
2022-11-27T04:24:58.000Z,3.3
2022-11-27T04:26:14.000Z,3
2022-11-27T04:27:30.000Z,3.3
2022-11-27T04:28:46.000Z,3.1
2022-11-27T04:30:01.000Z,3.1
2022-11-27T04:31:16.000Z,3.1
2022-11-27T04:32:31.000Z,2.8
2022-11-27T04:33:48.000Z,3.1
2022-11-27T04:35:04.000Z,3.2
2022-11-27T04:36:19.000Z,3
2022-11-27T04:37:35.000Z,3.2
2022-11-27T04:38:52.000Z,3.2
2022-11-27T04:40:08.000Z,3
2022-11-27T04:41:24.000Z,3.6
2022-11-27T04:42:40.000Z,3.2
2022-11-27T04:43:56.000Z,3
2022-11-27T04:45:13.000Z,3.2
2022-11-27T04:46:29.000Z,3.3
2022-11-27T04:47:45.000Z,3.4
2022-11-27T04:49:01.000Z,3
2022-11-27T04:50:18.000Z,3
2022-11-27T04:51:34.000Z,3.7
2022-11-27T04:52:50.000Z,3.5
2022-11-27T04:54:05.000Z,3.6
2022-11-27T04:55:22.000Z,3.5
2022-11-27T04:56:38.000Z,3.3
2022-11-27T04:57:54.000Z,3.8
2022-11-27T04:59:10.000Z,3.7
2022-11-27T05:00:27.000Z,3.3
2022-11-27T05:01:43.000Z,3.5
2022-11-27T05:02:59.000Z,3.8
2022-11-27T05:04:15.000Z,3.4
2022-11-27T05:05:31.000Z,3.2
2022-11-27T05:06:48.000Z,3.3
2022-11-27T05:08:04.000Z,3.8
2022-11-27T05:09:20.000Z,3.8
2022-11-27T05:10:35.000Z,3.4
2022-11-27T05:11:52.000Z,3.9
2022-11-27T05:13:08.000Z,3.5
2022-11-27T05:15:40.000Z,3.7
2022-11-27T05:16:57.000Z,3.8
2022-11-27T05:18:13.000Z,3.5
2022-11-27T05:19:29.000Z,3.6
2022-11-27T05:20:45.000Z,3.5
2022-11-27T05:22:02.000Z,3.4
2022-11-27T05:23:18.000Z,3.5
2022-11-27T05:24:34.000Z,4.2
2022-11-27T05:25:50.000Z,3.7
2022-11-27T05:27:05.000Z,3.5
2022-11-27T05:28:22.000Z,3.9
2022-11-27T05:29:38.000Z,4
2022-11-27T05:30:54.000Z,3.6
2022-11-27T05:32:10.000Z,3.8
2022-11-27T05:33:27.000Z,3.9
2022-11-27T05:34:43.000Z,3.7
2022-11-27T05:35:59.000Z,3.8
2022-11-27T05:37:15.000Z,3.6
2022-11-27T05:38:32.000Z,4.1
2022-11-27T05:39:48.000Z,3.8
2022-11-27T05:41:04.000Z,3.7
2022-11-27T05:42:20.000Z,4
2022-11-27T05:43:36.000Z,3.8
2022-11-27T05:44:51.000Z,3.8
2022-11-27T05:46:06.000Z,3.4
2022-11-27T05:47:21.000Z,3.4
2022-11-27T05:48:37.000Z,3.5
2022-11-27T05:49:53.000Z,3.5
2022-11-27T05:51:09.000Z,3.7
2022-11-27T05:52:25.000Z,3.9
2022-11-27T05:53:42.000Z,3.8
2022-11-27T05:54:58.000Z,3.9
2022-11-27T05:56:14.000Z,3.6
2022-11-27T05:57:30.000Z,4
2022-11-27T05:58:46.000Z,3.6
2022-11-27T06:00:03.000Z,3.8
2022-11-27T06:01:19.000Z,4
2022-11-27T06:02:35.000Z,3.5
2022-11-27T06:03:51.000Z,3.4
2022-11-27T06:05:07.000Z,3.2
2022-11-27T06:06:23.000Z,3.4
2022-11-27T06:07:39.000Z,3.6
2022-11-27T06:08:55.000Z,3.6
2022-11-27T06:10:12.000Z,3.8
2022-11-27T06:11:28.000Z,3.5
2022-11-27T06:12:44.000Z,3.5
2022-11-27T06:13:59.000Z,3.6
2022-11-27T06:15:15.000Z,3.3
2022-11-27T06:16:30.000Z,3.6
2022-11-27T06:17:45.000Z,3.5
2022-11-27T06:19:01.000Z,3.7
2022-11-27T06:20:18.000Z,3.6
2022-11-27T06:21:34.000Z,3.5
2022-11-27T06:22:50.000Z,3.9
2022-11-27T06:24:06.000Z,3.4
2022-11-27T06:25:22.000Z,3.8
2022-11-27T06:26:39.000Z,3.6
2022-11-27T06:27:55.000Z,3.8
2022-11-27T06:29:11.000Z,3.6
2022-11-27T06:30:27.000Z,3.2
2022-11-27T06:31:44.000Z,3.1
2022-11-27T06:33:00.000Z,3.1
2022-11-27T06:34:15.000Z,3.2
2022-11-27T06:35:31.000Z,3.4
2022-11-27T06:36:48.000Z,3
2022-11-27T06:38:04.000Z,3.1
2022-11-27T06:39:20.000Z,3
2022-11-27T06:40:36.000Z,3.4
2022-11-27T06:41:53.000Z,3.1
2022-11-27T06:43:09.000Z,3.7
2022-11-27T06:44:25.000Z,3.5
2022-11-27T06:45:41.000Z,3.3
2022-11-27T06:46:57.000Z,3.2
2022-11-27T06:48:14.000Z,3.1
2022-11-27T06:49:30.000Z,3.2
2022-11-27T06:50:45.000Z,3.3
2022-11-27T06:52:01.000Z,3.2
2022-11-27T06:53:18.000Z,3.2
2022-11-27T06:54:34.000Z,3.1
2022-11-27T06:55:50.000Z,3.5
2022-11-27T06:57:06.000Z,3.3
2022-11-27T06:58:23.000Z,2.8
2022-11-27T06:59:39.000Z,3.1
2022-11-27T07:00:54.000Z,3.2
2022-11-27T07:02:09.000Z,3.2
2022-11-27T07:03:25.000Z,3.1
2022-11-27T07:04:40.000Z,3.5
2022-11-27T07:05:56.000Z,3.2
2022-11-27T07:07:12.000Z,2.9
2022-11-27T07:08:29.000Z,2.9
2022-11-27T07:09:45.000Z,2.9
2022-11-27T07:11:01.000Z,3
2022-11-27T07:12:17.000Z,3.1
2022-11-27T07:13:34.000Z,2.9
2022-11-27T07:14:50.000Z,2.7
2022-11-27T07:16:06.000Z,2.9
2022-11-27T07:17:22.000Z,3.1
2022-11-27T07:18:38.000Z,2.7
2022-11-27T07:19:55.000Z,2.9
2022-11-27T07:21:10.000Z,2.9
2022-11-27T07:22:26.000Z,2.6
2022-11-27T07:23:42.000Z,3
2022-11-27T07:24:59.000Z,2.8
2022-11-27T07:27:31.000Z,2.8
2022-11-27T07:28:47.000Z,3.2
2022-11-27T07:30:04.000Z,3
2022-11-27T07:31:20.000Z,3.2
2022-11-27T07:32:36.000Z,3.1
2022-11-27T07:33:52.000Z,2.6
2022-11-27T07:35:08.000Z,3
2022-11-27T07:36:25.000Z,2.8
2022-11-27T07:37:40.000Z,2.9
2022-11-27T07:38:56.000Z,3.1
2022-11-27T07:40:12.000Z,3
2022-11-27T07:41:29.000Z,2.7
2022-11-27T07:42:45.000Z,2.8
2022-11-27T07:44:01.000Z,2.8
2022-11-27T07:45:17.000Z,2.8
2022-11-27T07:46:34.000Z,2.8
2022-11-27T07:47:50.000Z,3.1
2022-11-27T07:49:06.000Z,2.8
2022-11-27T07:50:22.000Z,2.6
2022-11-27T07:51:38.000Z,2.9
2022-11-27T07:52:53.000Z,3
2022-11-27T07:54:08.000Z,3
2022-11-27T07:55:23.000Z,2.9
2022-11-27T07:56:40.000Z,2.8
2022-11-27T07:57:56.000Z,3.1
2022-11-27T07:59:12.000Z,2.8
2022-11-27T08:00:28.000Z,3.1
2022-11-27T08:03:01.000Z,2.8
2022-11-27T08:04:17.000Z,2.8
2022-11-27T08:05:33.000Z,3
2022-11-27T08:06:49.000Z,2.9
2022-11-27T08:08:06.000Z,2.9
2022-11-27T08:09:22.000Z,2.8
2022-11-27T08:10:38.000Z,2.8
2022-11-27T08:11:53.000Z,2.9
2022-11-27T08:13:10.000Z,3.1
2022-11-27T08:14:26.000Z,2.8
2022-11-27T08:15:42.000Z,2.9
2022-11-27T08:16:58.000Z,2.9
2022-11-27T08:18:15.000Z,2.7
2022-11-27T08:19:31.000Z,3
2022-11-27T08:20:47.000Z,3
2022-11-27T08:22:03.000Z,3.2
2022-11-27T08:23:20.000Z,2.9
2022-11-27T08:24:36.000Z,2.8
2022-11-27T08:25:52.000Z,2.7
2022-11-27T08:27:08.000Z,2.7
2022-11-27T08:28:23.000Z,2.8
2022-11-27T08:29:39.000Z,3.2
2022-11-27T08:30:54.000Z,2.6
2022-11-27T08:32:09.000Z,2.7
2022-11-27T08:33:24.000Z,2.8
2022-11-27T08:34:41.000Z,2.5
2022-11-27T08:35:57.000Z,3
2022-11-27T08:37:13.000Z,2.9
2022-11-27T08:38:29.000Z,2.8
2022-11-27T08:39:46.000Z,2.8
2022-11-27T08:41:02.000Z,3
2022-11-27T08:42:18.000Z,3
2022-11-27T08:43:34.000Z,3.2
2022-11-27T08:44:51.000Z,3.1
2022-11-27T08:46:07.000Z,2.8
2022-11-27T08:47:23.000Z,2.8
2022-11-27T08:48:39.000Z,2.9
2022-11-27T08:49:55.000Z,2.8
2022-11-27T08:51:10.000Z,2.6
2022-11-27T08:52:26.000Z,3.2
2022-11-27T08:53:42.000Z,3.2
2022-11-27T08:54:59.000Z,2.8
2022-11-27T08:56:15.000Z,2.9
2022-11-27T08:57:31.000Z,3.2
2022-11-27T08:58:47.000Z,3
2022-11-27T09:00:03.000Z,2.9
2022-11-27T09:01:20.000Z,2.9
2022-11-27T09:02:36.000Z,3.2
2022-11-27T09:03:52.000Z,2.8
2022-11-27T09:05:08.000Z,3.1
2022-11-27T09:06:25.000Z,3
2022-11-27T09:07:40.000Z,3.6
2022-11-27T09:08:56.000Z,3.1
2022-11-27T09:10:12.000Z,3.1
2022-11-27T09:11:29.000Z,3.1
2022-11-27T09:12:45.000Z,3.2
2022-11-27T09:14:01.000Z,3.4
2022-11-27T09:15:17.000Z,3.3
2022-11-27T09:16:34.000Z,3.4
2022-11-27T09:17:50.000Z,3.4
2022-11-27T09:19:06.000Z,3.6
2022-11-27T09:20:22.000Z,3.7
2022-11-27T09:21:38.000Z,3.3
2022-11-27T09:22:55.000Z,3.5
2022-11-27T09:24:10.000Z,3.3
2022-11-27T09:25:26.000Z,3.5
2022-11-27T09:26:42.000Z,3.4
2022-11-27T09:27:59.000Z,3.2
2022-11-27T09:29:15.000Z,3.2
2022-11-27T09:30:31.000Z,3.2
2022-11-27T09:31:47.000Z,3.9
2022-11-27T09:33:04.000Z,3.7
2022-11-27T09:34:20.000Z,3.5
2022-11-27T09:35:36.000Z,3.7
2022-11-27T09:36:52.000Z,3.3
2022-11-27T09:38:08.000Z,3.6
2022-11-27T09:39:25.000Z,3.6
2022-11-27T09:40:40.000Z,3
2022-11-27T09:41:56.000Z,3.1
2022-11-27T09:44:29.000Z,3.5
2022-11-27T09:45:44.000Z,3.7
2022-11-27T09:46:59.000Z,3.1
2022-11-27T09:48:14.000Z,3.3
2022-11-27T09:49:30.000Z,3.7
2022-11-27T09:50:46.000Z,3.8
2022-11-27T09:52:02.000Z,3.1
2022-11-27T09:53:18.000Z,3.8
2022-11-27T09:54:35.000Z,3.4
2022-11-27T09:55:51.000Z,3.9
2022-11-27T09:57:07.000Z,3.4
2022-11-27T09:58:23.000Z,3.5
2022-11-27T09:59:40.000Z,3.5
2022-11-27T10:00:56.000Z,3.6
2022-11-27T10:02:12.000Z,3.8
2022-11-27T10:03:28.000Z,3.5
2022-11-27T10:04:45.000Z,3.7
2022-11-27T10:06:00.000Z,3.9
2022-11-27T10:07:16.000Z,3.5
2022-11-27T10:08:32.000Z,3.9
2022-11-27T10:09:48.000Z,3.9
2022-11-27T10:11:05.000Z,3.6
2022-11-27T10:12:21.000Z,3.5
2022-11-27T10:13:37.000Z,3.5
2022-11-27T10:14:52.000Z,4.4
2022-11-27T10:16:08.000Z,3.9
2022-11-27T10:17:24.000Z,3.8
2022-11-27T10:18:40.000Z,3.9
2022-11-27T10:19:55.000Z,3.9
2022-11-27T10:21:11.000Z,4.1
2022-11-27T10:22:27.000Z,4
2022-11-27T10:23:43.000Z,3.9
2022-11-27T10:24:59.000Z,3.9
2022-11-27T10:26:16.000Z,3.9
2022-11-27T10:27:32.000Z,3.8
2022-11-27T10:28:48.000Z,3.8
2022-11-27T10:30:04.000Z,4.2
2022-11-27T10:31:21.000Z,4.1
2022-11-27T10:32:37.000Z,3.9
2022-11-27T10:33:53.000Z,4.2
2022-11-27T10:35:09.000Z,4.4
2022-11-27T10:36:25.000Z,4.2
2022-11-27T10:37:41.000Z,4.4
2022-11-27T10:38:57.000Z,4.2
2022-11-27T10:40:13.000Z,3.9
2022-11-27T10:41:29.000Z,3.7
2022-11-27T10:42:46.000Z,4.1
2022-11-27T10:44:02.000Z,4.2
2022-11-27T10:45:18.000Z,3.8
2022-11-27T10:46:34.000Z,4
2022-11-27T10:47:50.000Z,4.1
2022-11-27T10:49:06.000Z,4.1
2022-11-27T10:50:22.000Z,4.4
2022-11-27T10:51:37.000Z,4.4
2022-11-27T10:52:53.000Z,4.6
2022-11-27T10:54:09.000Z,4
2022-11-27T10:55:25.000Z,4.3
2022-11-27T10:56:41.000Z,4.2
2022-11-27T10:57:58.000Z,4.5
2022-11-27T10:59:14.000Z,3.9
2022-11-27T11:00:30.000Z,4.4
2022-11-27T11:01:46.000Z,4.2
2022-11-27T11:03:02.000Z,4.2
2022-11-27T11:04:19.000Z,4.1
2022-11-27T11:05:35.000Z,4
2022-11-27T11:06:51.000Z,4
2022-11-27T11:08:07.000Z,3.6
2022-11-27T11:09:23.000Z,4
2022-11-27T11:10:39.000Z,3.7
2022-11-27T11:11:55.000Z,4.1
2022-11-27T11:13:11.000Z,4.4
2022-11-27T11:14:28.000Z,4.1
2022-11-27T11:15:44.000Z,3.9
2022-11-27T11:17:00.000Z,3.9
2022-11-27T11:18:15.000Z,4.1
2022-11-27T11:19:31.000Z,4
2022-11-27T11:20:47.000Z,3.9
2022-11-27T11:22:02.000Z,4.2
2022-11-27T11:23:17.000Z,4
2022-11-27T11:24:34.000Z,4.5
2022-11-27T11:25:50.000Z,4.1
2022-11-27T11:27:06.000Z,4.3
2022-11-27T11:28:22.000Z,3.9
2022-11-27T11:29:39.000Z,3.8
2022-11-27T11:30:55.000Z,3.8
2022-11-27T11:32:11.000Z,4.5
2022-11-27T11:33:27.000Z,4.2
2022-11-27T11:34:43.000Z,4.1
2022-11-27T11:36:00.000Z,4.7
2022-11-27T11:38:32.000Z,4
2022-11-27T11:39:47.000Z,4.5
2022-11-27T11:41:04.000Z,4.5
2022-11-27T11:42:20.000Z,4.4
2022-11-27T11:43:36.000Z,4.3
2022-11-27T11:44:52.000Z,4.4
2022-11-27T11:46:09.000Z,4.7
2022-11-27T11:47:25.000Z,4.4
2022-11-27T11:48:41.000Z,4.4
2022-11-27T11:49:56.000Z,4.5
2022-11-27T11:51:12.000Z,4.3
2022-11-27T11:52:27.000Z,4.7
2022-11-27T11:53:42.000Z,4.5
2022-11-27T11:54:58.000Z,4.6
2022-11-27T11:56:15.000Z,4.7
2022-11-27T11:57:31.000Z,4.5
2022-11-27T11:58:47.000Z,4.6
2022-11-27T12:01:19.000Z,4.3
2022-11-27T12:02:36.000Z,4.6
2022-11-27T12:03:52.000Z,5.1
2022-11-27T12:05:08.000Z,4.6
2022-11-27T12:06:24.000Z,4
2022-11-27T12:07:41.000Z,4.6
2022-11-27T12:08:57.000Z,4.2
2022-11-27T12:10:12.000Z,4.5
2022-11-27T12:11:28.000Z,4.9
2022-11-27T12:12:45.000Z,4.8
2022-11-27T12:14:01.000Z,4.3
2022-11-27T12:15:17.000Z,4.4
2022-11-27T12:16:33.000Z,4.1
2022-11-27T12:17:50.000Z,4.5
2022-11-27T12:19:06.000Z,4.5
2022-11-27T12:20:22.000Z,4.4
2022-11-27T12:21:38.000Z,4.4
2022-11-27T12:22:54.000Z,4.6
2022-11-27T12:24:11.000Z,4.5
2022-11-27T12:25:27.000Z,4.9
2022-11-27T12:26:42.000Z,4.5
2022-11-27T12:27:58.000Z,4.3
2022-11-27T12:29:15.000Z,4.5
2022-11-27T12:30:30.000Z,4.2
2022-11-27T12:31:45.000Z,4.1
2022-11-27T12:33:01.000Z,4.7
2022-11-27T12:34:18.000Z,4.2
2022-11-27T12:35:33.000Z,4.4
2022-11-27T12:36:48.000Z,4.1
2022-11-27T12:39:21.000Z,3.6
2022-11-27T12:40:37.000Z,4.3
2022-11-27T12:41:53.000Z,4.6
2022-11-27T12:43:09.000Z,4.1
2022-11-27T12:44:26.000Z,3.9
2022-11-27T12:45:42.000Z,4.2
2022-11-27T12:46:58.000Z,4.1
2022-11-27T12:48:14.000Z,4.3
2022-11-27T12:49:30.000Z,4.4
2022-11-27T12:50:47.000Z,4
2022-11-27T12:52:03.000Z,4
2022-11-27T12:53:18.000Z,4.3
2022-11-27T12:54:34.000Z,4.2
2022-11-27T12:55:51.000Z,4.8
2022-11-27T12:57:07.000Z,4.5
2022-11-27T12:58:23.000Z,3.9
2022-11-27T12:59:39.000Z,4.3
2022-11-27T13:00:56.000Z,3.6
2022-11-27T13:02:12.000Z,3.9
2022-11-27T13:03:27.000Z,4
2022-11-27T13:04:42.000Z,3.8
2022-11-27T13:05:59.000Z,4.3
2022-11-27T13:07:14.000Z,4.4
2022-11-27T13:08:29.000Z,4.3
2022-11-27T13:09:44.000Z,4
2022-11-27T13:11:01.000Z,3.8
2022-11-27T13:12:17.000Z,4.1
2022-11-27T13:13:33.000Z,4.3
2022-11-27T13:14:49.000Z,3.6
2022-11-27T13:16:06.000Z,4.1
2022-11-27T13:17:22.000Z,4.2
2022-11-27T13:18:38.000Z,4
2022-11-27T13:19:54.000Z,4.1
2022-11-27T13:21:10.000Z,4
2022-11-27T13:22:27.000Z,4
2022-11-27T13:23:43.000Z,3.9
2022-11-27T13:24:59.000Z,3.8
2022-11-27T13:26:14.000Z,4
2022-11-27T13:27:31.000Z,4.3
2022-11-27T13:28:47.000Z,3.4
2022-11-27T13:31:19.000Z,3.8
2022-11-27T13:32:36.000Z,4.1
2022-11-27T13:33:52.000Z,3.5
2022-11-27T13:35:08.000Z,3.6
2022-11-27T13:36:23.000Z,3.8
2022-11-27T13:37:39.000Z,3.5
2022-11-27T13:38:55.000Z,3.5
2022-11-27T13:40:11.000Z,3.6
2022-11-27T13:41:27.000Z,3.7
2022-11-27T13:44:00.000Z,3.4
2022-11-27T13:45:16.000Z,3.1
2022-11-27T13:46:31.000Z,3.7
2022-11-27T13:47:46.000Z,2.9
2022-11-27T13:49:03.000Z,3.1
2022-11-27T13:50:19.000Z,3.1
2022-11-27T13:51:35.000Z,3
2022-11-27T13:52:51.000Z,3.1
2022-11-27T13:54:08.000Z,3.4
2022-11-27T13:55:24.000Z,3.3
2022-11-27T13:56:40.000Z,3.1
2022-11-27T13:57:56.000Z,3.2
2022-11-27T13:59:13.000Z,3.2
2022-11-27T14:00:29.000Z,3.3
2022-11-27T14:01:45.000Z,2.7
2022-11-27T14:03:01.000Z,3
2022-11-27T14:04:17.000Z,2.9
2022-11-27T14:05:33.000Z,3.1
2022-11-27T14:06:49.000Z,3
2022-11-27T14:08:05.000Z,3.2
2022-11-27T14:09:21.000Z,3.2
2022-11-27T14:10:38.000Z,3.1
2022-11-27T14:11:54.000Z,3
2022-11-27T14:13:10.000Z,2.9
2022-11-27T14:14:26.000Z,3.1
2022-11-27T14:15:43.000Z,3
2022-11-27T14:16:59.000Z,3.2
2022-11-27T14:18:15.000Z,3.1
2022-11-27T14:19:31.000Z,3.3
2022-11-27T14:22:03.000Z,3.8
2022-11-27T14:23:19.000Z,3.3
2022-11-27T14:24:35.000Z,3.4
2022-11-27T14:25:52.000Z,3.1
2022-11-27T14:27:08.000Z,3.5
2022-11-27T14:28:24.000Z,3.8
2022-11-27T14:29:40.000Z,3.8
2022-11-27T14:30:56.000Z,3.7
2022-11-27T14:32:13.000Z,3.3
2022-11-27T14:33:29.000Z,3.6
2022-11-27T14:34:45.000Z,3.7
2022-11-27T14:36:01.000Z,3.5
2022-11-27T14:37:17.000Z,3.4
2022-11-27T14:38:33.000Z,3.1
2022-11-27T14:39:49.000Z,3.5
2022-11-27T14:41:05.000Z,3.6
2022-11-27T14:42:22.000Z,3.1
2022-11-27T14:43:38.000Z,3.4
2022-11-27T14:44:54.000Z,3.2
2022-11-27T14:46:10.000Z,3.4
2022-11-27T14:47:27.000Z,3.5
2022-11-27T14:48:43.000Z,3.8
2022-11-27T14:49:59.000Z,3.7
2022-11-27T14:51:15.000Z,3.7
2022-11-27T14:52:31.000Z,3.9
2022-11-27T14:53:47.000Z,3.5
2022-11-27T14:55:03.000Z,3.5
2022-11-27T14:56:19.000Z,3.9
2022-11-27T14:57:35.000Z,3.9
2022-11-27T14:58:52.000Z,4.2
2022-11-27T15:00:08.000Z,3.9
2022-11-27T15:01:24.000Z,4.1
2022-11-27T15:02:40.000Z,4.2
2022-11-27T15:03:57.000Z,4
2022-11-27T15:05:13.000Z,4
2022-11-27T15:06:29.000Z,3.6
2022-11-27T15:07:45.000Z,3.9
2022-11-27T15:09:02.000Z,4.6
2022-11-27T15:10:17.000Z,4.1
2022-11-27T15:12:49.000Z,4.5
2022-11-27T15:14:05.000Z,3.8
2022-11-27T15:15:22.000Z,4.5
2022-11-27T15:16:38.000Z,4.4
2022-11-27T15:17:54.000Z,4.2
2022-11-27T15:19:10.000Z,4.5
2022-11-27T15:20:27.000Z,4.1
2022-11-27T15:21:43.000Z,4.3
2022-11-27T15:22:59.000Z,4.1
2022-11-27T15:24:15.000Z,4.4
2022-11-27T15:25:32.000Z,4.3
2022-11-27T15:26:47.000Z,4.8
2022-11-27T15:28:03.000Z,4.5
2022-11-27T15:29:19.000Z,4.7
2022-11-27T15:30:36.000Z,4.4
2022-11-27T15:31:52.000Z,4.7
2022-11-27T15:33:08.000Z,4.4
2022-11-27T15:34:24.000Z,4.4
2022-11-27T15:35:40.000Z,4.3
2022-11-27T15:38:13.000Z,4.5
2022-11-27T15:39:29.000Z,4.1
2022-11-27T15:40:45.000Z,4.3
2022-11-27T15:42:02.000Z,4.3
2022-11-27T15:43:18.000Z,4.5
2022-11-27T15:44:33.000Z,4.5
2022-11-27T15:45:49.000Z,4.6
2022-11-27T15:47:06.000Z,4.7
2022-11-27T15:48:22.000Z,4.7
2022-11-27T15:50:54.000Z,4.5
2022-11-27T15:52:11.000Z,5
2022-11-27T15:53:27.000Z,4.8
2022-11-27T15:54:43.000Z,4.7
2022-11-27T15:55:59.000Z,4.7
2022-11-27T15:57:15.000Z,4.9
2022-11-27T15:58:32.000Z,4.8
2022-11-27T15:59:48.000Z,4.9
2022-11-27T16:01:03.000Z,4.5
2022-11-27T16:02:19.000Z,4.6
2022-11-27T16:03:36.000Z,4.7
2022-11-27T16:04:52.000Z,5
2022-11-27T16:06:08.000Z,4.6
2022-11-27T16:07:24.000Z,4.9
2022-11-27T16:08:41.000Z,4.8
2022-11-27T16:09:57.000Z,4.9
2022-11-27T16:11:13.000Z,4.9
2022-11-27T16:12:29.000Z,4.6
2022-11-27T16:13:46.000Z,4.9
2022-11-27T16:16:18.000Z,4.6
2022-11-27T16:17:33.000Z,4.9
2022-11-27T16:18:49.000Z,4.9
2022-11-27T16:20:06.000Z,5.1
2022-11-27T16:21:22.000Z,4.4
2022-11-27T16:22:38.000Z,4.8
2022-11-27T16:23:54.000Z,4.3
2022-11-27T16:25:11.000Z,4.1
2022-11-27T16:26:27.000Z,4.4
2022-11-27T16:27:43.000Z,4.3
2022-11-27T16:28:59.000Z,4.1
2022-11-27T16:30:16.000Z,4.2
2022-11-27T16:31:32.000Z,4.2
2022-11-27T16:32:48.000Z,4
2022-11-27T16:35:20.000Z,4.5
2022-11-27T16:36:36.000Z,3.6
2022-11-27T16:37:52.000Z,3.9
2022-11-27T16:40:24.000Z,3.4
2022-11-27T16:42:56.000Z,3.3
2022-11-27T16:44:11.000Z,3.3
2022-11-27T16:45:27.000Z,3.4
2022-11-27T16:46:44.000Z,2.9
2022-11-27T16:48:00.000Z,3.3
2022-11-27T16:49:15.000Z,3.4
2022-11-27T16:50:31.000Z,2.9
2022-11-27T16:51:48.000Z,2.8
2022-11-27T16:53:04.000Z,2.3
2022-11-27T16:54:20.000Z,2.2
2022-11-27T16:55:36.000Z,2.7
2022-11-27T16:56:53.000Z,2.3
2022-11-27T16:58:09.000Z,2.3
2022-11-27T16:59:24.000Z,2.1
2022-11-27T17:00:40.000Z,2.5
2022-11-27T17:03:12.000Z,2.1
2022-11-27T17:04:28.000Z,2.5
2022-11-27T17:05:44.000Z,2.3
2022-11-27T17:07:01.000Z,2.4
2022-11-27T17:08:17.000Z,2.5
2022-11-27T17:09:33.000Z,2.3
2022-11-27T17:10:49.000Z,2.2
2022-11-27T17:13:22.000Z,2.5
2022-11-27T17:14:38.000Z,2.4
2022-11-27T17:15:54.000Z,2.7
2022-11-27T17:18:26.000Z,3.1
2022-11-27T17:19:41.000Z,2.9
2022-11-27T17:20:57.000Z,3.2
2022-11-27T17:22:12.000Z,3
2022-11-27T17:23:29.000Z,2.8
2022-11-27T17:24:45.000Z,2.4
2022-11-27T17:26:01.000Z,3.1
2022-11-27T17:27:17.000Z,2.6
2022-11-27T17:28:34.000Z,2.9
2022-11-27T17:29:50.000Z,2.8
2022-11-27T17:31:06.000Z,2.6
2022-11-27T17:33:39.000Z,2.7
2022-11-27T17:36:11.000Z,2.5
2022-11-27T17:37:27.000Z,2.4
2022-11-27T17:38:42.000Z,2.8
2022-11-27T17:41:14.000Z,2.2
2022-11-27T17:43:46.000Z,2.2
2022-11-27T17:45:03.000Z,2
2022-11-27T17:46:19.000Z,2.2
2022-11-27T17:48:51.000Z,2
2022-11-27T17:50:08.000Z,2.2
2022-11-27T17:51:24.000Z,2.4
2022-11-27T17:52:40.000Z,1.9
2022-11-27T17:53:56.000Z,2.2
2022-11-27T17:56:29.000Z,2.1
2022-11-27T17:59:01.000Z,2.4
2022-11-27T18:00:17.000Z,2.4
2022-11-27T18:01:34.000Z,2.2
2022-11-27T18:02:50.000Z,2.1
2022-11-27T18:04:06.000Z,2.2
2022-11-27T18:06:38.000Z,2
2022-11-27T18:07:54.000Z,1.9
2022-11-27T18:11:43.000Z,2.5
2022-11-27T18:12:59.000Z,2.2
2022-11-27T18:14:15.000Z,2.1
2022-11-27T18:15:31.000Z,2.1
2022-11-27T18:16:48.000Z,1.9